Weather at Putrajaya Recreational Airport

Public forecast

Using degrees Celsius for public forecast. Weather courtesy of forecast.io.

Closest aviation weather report (METAR) to Putrajaya Recreational Airport

Closest report is Kuala Lumpur International Airport, 9.8 nm (18.1 km) SSE.

2024/07/18 16:30 (retrieved 14 minutes ago)

WMKK 181630Z VRB04KT 9000 FEW030 28/25 Q1009 NOSIG

Closest aviation forecast (TAF) to Putrajaya Recreational Airport

Closest forecast is Kuala Lumpur International Airport, 9.8 nm (18.1 km) SSE.

2024/07/18 12:12 (retrieved 5 hours ago)

TAF WMKK 181100Z 1812/1918 VRB03KT 9999 FEW030